sensor_id;sensor_type;location;lat;lon;timestamp;P1;durP1;ratioP1;P2;durP2;ratioP2
7795;SDS011;3942;51.518;6.912;2024-02-15T00:04:42;23.50;;;12.27;;
7795;SDS011;3942;51.518;6.912;2024-02-15T00:09:46;20.80;;;12.23;;
7795;SDS011;3942;51.518;6.912;2024-02-15T00:14:48;23.50;;;11.98;;
7795;SDS011;3942;51.518;6.912;2024-02-15T00:19:49;21.40;;;11.70;;
7795;SDS011;3942;51.518;6.912;2024-02-15T00:24:53;22.60;;;11.20;;
7795;SDS011;3942;51.518;6.912;2024-02-15T00:29:55;28.77;;;12.40;;
7795;SDS011;3942;51.518;6.912;2024-02-15T00:34:57;22.40;;;12.38;;
7795;SDS011;3942;51.518;6.912;2024-02-15T00:40:00;24.23;;;12.45;;
7795;SDS011;3942;51.518;6.912;2024-02-15T00:45:04;30.65;;;13.45;;
7795;SDS011;3942;51.518;6.912;2024-02-15T00:50:09;56.03;;;28.85;;
7795;SDS011;3942;51.518;6.912;2024-02-15T00:55:12;28.10;;;13.35;;
7795;SDS011;3942;51.518;6.912;2024-02-15T01:00:14;23.38;;;12.70;;
7795;SDS011;3942;51.518;6.912;2024-02-15T01:05:17;20.13;;;11.90;;
7795;SDS011;3942;51.518;6.912;2024-02-15T01:10:20;30.85;;;14.18;;
7795;SDS011;3942;51.518;6.912;2024-02-15T01:15:22;18.85;;;11.50;;
7795;SDS011;3942;51.518;6.912;2024-02-15T01:20:24;23.88;;;12.13;;
7795;SDS011;3942;51.518;6.912;2024-02-15T01:25:28;23.83;;;12.52;;
7795;SDS011;3942;51.518;6.912;2024-02-15T01:30:30;26.50;;;14.60;;
7795;SDS011;3942;51.518;6.912;2024-02-15T01:35:32;26.05;;;14.85;;
7795;SDS011;3942;51.518;6.912;2024-02-15T01:40:35;33.97;;;16.70;;
7795;SDS011;3942;51.518;6.912;2024-02-15T01:45:37;26.77;;;16.55;;
7795;SDS011;3942;51.518;6.912;2024-02-15T01:50:39;31.65;;;16.55;;
7795;SDS011;3942;51.518;6.912;2024-02-15T01:55:43;25.42;;;14.55;;
7795;SDS011;3942;51.518;6.912;2024-02-15T02:00:45;25.27;;;12.65;;
7795;SDS011;3942;51.518;6.912;2024-02-15T02:05:47;30.50;;;10.90;;
7795;SDS011;3942;51.518;6.912;2024-02-15T02:10:51;19.77;;;10.57;;
7795;SDS011;3942;51.518;6.912;2024-02-15T02:15:54;31.15;;;13.68;;
7795;SDS011;3942;51.518;6.912;2024-02-15T02:20:56;17.95;;;9.50;;
7795;SDS011;3942;51.518;6.912;2024-02-15T02:26:00;18.27;;;8.88;;
7795;SDS011;3942;51.518;6.912;2024-02-15T02:31:02;16.02;;;8.45;;
7795;SDS011;3942;51.518;6.912;2024-02-15T02:36:04;16.92;;;8.15;;
7795;SDS011;3942;51.518;6.912;2024-02-15T02:41:10;15.90;;;8.90;;
7795;SDS011;3942;51.518;6.912;2024-02-15T02:46:13;17.48;;;8.88;;
7795;SDS011;3942;51.518;6.912;2024-02-15T02:51:15;13.93;;;7.28;;
7795;SDS011;3942;51.518;6.912;2024-02-15T02:56:19;23.58;;;7.45;;
7795;SDS011;3942;51.518;6.912;2024-02-15T03:01:22;21.80;;;6.80;;
7795;SDS011;3942;51.518;6.912;2024-02-15T03:06:26;17.58;;;7.10;;
7795;SDS011;3942;51.518;6.912;2024-02-15T03:11:29;17.20;;;7.30;;
7795;SDS011;3942;51.518;6.912;2024-02-15T03:16:31;15.32;;;6.07;;
7795;SDS011;3942;51.518;6.912;2024-02-15T03:21:33;12.10;;;6.47;;
7795;SDS011;3942;51.518;6.912;2024-02-15T03:26:37;16.70;;;6.43;;
7795;SDS011;3942;51.518;6.912;2024-02-15T03:31:40;23.25;;;7.72;;
7795;SDS011;3942;51.518;6.912;2024-02-15T03:36:42;14.88;;;5.55;;
7795;SDS011;3942;51.518;6.912;2024-02-15T03:41:45;16.83;;;6.07;;
7795;SDS011;3942;51.518;6.912;2024-02-15T03:46:47;12.00;;;5.88;;
7795;SDS011;3942;51.518;6.912;2024-02-15T03:51:51;8.40;;;5.28;;
7795;SDS011;3942;51.518;6.912;2024-02-15T03:56:56;12.77;;;6.22;;
7795;SDS011;3942;51.518;6.912;2024-02-15T04:01:58;18.08;;;5.80;;
7795;SDS011;3942;51.518;6.912;2024-02-15T04:07:00;13.13;;;5.72;;
7795;SDS011;3942;51.518;6.912;2024-02-15T04:12:05;13.30;;;6.20;;
7795;SDS011;3942;51.518;6.912;2024-02-15T04:17:07;18.13;;;5.93;;
7795;SDS011;3942;51.518;6.912;2024-02-15T04:22:09;13.35;;;5.05;;
7795;SDS011;3942;51.518;6.912;2024-02-15T04:27:12;10.70;;;4.90;;
7795;SDS011;3942;51.518;6.912;2024-02-15T04:32:14;10.50;;;5.18;;
7795;SDS011;3942;51.518;6.912;2024-02-15T04:37:16;17.00;;;5.90;;
7795;SDS011;3942;51.518;6.912;2024-02-15T04:42:22;12.73;;;5.15;;
7795;SDS011;3942;51.518;6.912;2024-02-15T04:47:26;9.98;;;4.28;;
7795;SDS011;3942;51.518;6.912;2024-02-15T04:52:30;31.42;;;5.93;;
7795;SDS011;3942;51.518;6.912;2024-02-15T04:57:33;11.90;;;4.22;;
7795;SDS011;3942;51.518;6.912;2024-02-15T05:02:37;11.30;;;4.45;;
7795;SDS011;3942;51.518;6.912;2024-02-15T05:07:40;8.63;;;4.32;;
7795;SDS011;3942;51.518;6.912;2024-02-15T05:12:44;11.00;;;4.60;;
7795;SDS011;3942;51.518;6.912;2024-02-15T05:17:48;6.18;;;2.30;;
7795;SDS011;3942;51.518;6.912;2024-02-15T05:22:50;10.82;;;3.92;;
7795;SDS011;3942;51.518;6.912;2024-02-15T05:27:53;9.48;;;3.75;;
7795;SDS011;3942;51.518;6.912;2024-02-15T05:32:55;9.80;;;4.32;;
7795;SDS011;3942;51.518;6.912;2024-02-15T05:37:57;15.38;;;3.75;;
7795;SDS011;3942;51.518;6.912;2024-02-15T05:43:00;6.10;;;3.08;;
7795;SDS011;3942;51.518;6.912;2024-02-15T05:48:04;8.07;;;2.88;;
7795;SDS011;3942;51.518;6.912;2024-02-15T05:53:08;7.40;;;3.60;;
7795;SDS011;3942;51.518;6.912;2024-02-15T05:58:12;9.40;;;3.17;;
7795;SDS011;3942;51.518;6.912;2024-02-15T06:03:14;8.05;;;4.03;;
7795;SDS011;3942;51.518;6.912;2024-02-15T06:08:15;6.57;;;3.22;;
7795;SDS011;3942;51.518;6.912;2024-02-15T06:13:20;5.85;;;2.92;;
7795;SDS011;3942;51.518;6.912;2024-02-15T06:18:23;9.73;;;2.67;;
7795;SDS011;3942;51.518;6.912;2024-02-15T06:23:28;11.00;;;3.30;;
7795;SDS011;3942;51.518;6.912;2024-02-15T06:28:31;13.02;;;3.17;;
7795;SDS011;3942;51.518;6.912;2024-02-15T06:33:51;8.93;;;3.00;;
7795;SDS011;3942;51.518;6.912;2024-02-15T06:39:11;8.57;;;2.88;;
7795;SDS011;3942;51.518;6.912;2024-02-15T06:44:32;8.15;;;3.75;;
7795;SDS011;3942;51.518;6.912;2024-02-15T06:49:34;16.00;;;4.88;;
7795;SDS011;3942;51.518;6.912;2024-02-15T06:54:36;32.58;;;17.90;;
7795;SDS011;3942;51.518;6.912;2024-02-15T06:59:40;10.50;;;3.83;;
7795;SDS011;3942;51.518;6.912;2024-02-15T07:04:43;7.32;;;3.60;;
7795;SDS011;3942;51.518;6.912;2024-02-15T07:09:46;10.80;;;4.70;;
7795;SDS011;3942;51.518;6.912;2024-02-15T07:14:49;11.93;;;3.90;;
7795;SDS011;3942;51.518;6.912;2024-02-15T07:19:51;13.25;;;4.22;;
7795;SDS011;3942;51.518;6.912;2024-02-15T07:24:53;8.82;;;3.75;;
7795;SDS011;3942;51.518;6.912;2024-02-15T07:29:56;20.48;;;8.05;;
7795;SDS011;3942;51.518;6.912;2024-02-15T07:34:58;17.60;;;10.10;;
7795;SDS011;3942;51.518;6.912;2024-02-15T07:40:00;12.82;;;6.75;;
7795;SDS011;3942;51.518;6.912;2024-02-15T07:45:05;16.90;;;6.07;;
7795;SDS011;3942;51.518;6.912;2024-02-15T07:50:08;11.65;;;5.07;;
7795;SDS011;3942;51.518;6.912;2024-02-15T07:55:10;12.57;;;4.47;;
7795;SDS011;3942;51.518;6.912;2024-02-15T08:00:13;13.43;;;4.70;;
7795;SDS011;3942;51.518;6.912;2024-02-15T08:05:16;12.98;;;3.75;;
7795;SDS011;3942;51.518;6.912;2024-02-15T08:10:18;6.50;;;3.45;;
7795;SDS011;3942;51.518;6.912;2024-02-15T08:15:22;11.73;;;3.92;;
7795;SDS011;3942;51.518;6.912;2024-02-15T08:20:24;10.00;;;3.95;;
7795;SDS011;3942;51.518;6.912;2024-02-15T08:25:31;12.98;;;4.38;;
7795;SDS011;3942;51.518;6.912;2024-02-15T08:30:34;9.13;;;4.15;;
7795;SDS011;3942;51.518;6.912;2024-02-15T08:35:38;11.75;;;4.90;;
7795;SDS011;3942;51.518;6.912;2024-02-15T08:40:41;6.25;;;3.70;;
7795;SDS011;3942;51.518;6.912;2024-02-15T08:45:47;13.40;;;3.42;;
7795;SDS011;3942;51.518;6.912;2024-02-15T08:50:49;6.43;;;2.13;;
7795;SDS011;3942;51.518;6.912;2024-02-15T08:55:51;9.30;;;4.18;;
7795;SDS011;3942;51.518;6.912;2024-02-15T09:00:55;10.55;;;3.40;;
7795;SDS011;3942;51.518;6.912;2024-02-15T09:05:57;11.23;;;4.63;;
7795;SDS011;3942;51.518;6.912;2024-02-15T09:11:03;8.60;;;2.72;;
7795;SDS011;3942;51.518;6.912;2024-02-15T09:16:06;6.97;;;2.78;;
7795;SDS011;3942;51.518;6.912;2024-02-15T09:21:08;9.93;;;3.13;;
7795;SDS011;3942;51.518;6.912;2024-02-15T09:26:10;8.60;;;3.00;;
7795;SDS011;3942;51.518;6.912;2024-02-15T09:31:13;8.40;;;2.28;;
7795;SDS011;3942;51.518;6.912;2024-02-15T09:36:15;6.03;;;3.50;;
7795;SDS011;3942;51.518;6.912;2024-02-15T09:41:17;8.57;;;3.42;;
7795;SDS011;3942;51.518;6.912;2024-02-15T09:46:20;9.25;;;2.70;;
7795;SDS011;3942;51.518;6.912;2024-02-15T09:51:22;6.95;;;2.55;;
7795;SDS011;3942;51.518;6.912;2024-02-15T09:56:26;7.07;;;2.42;;
7795;SDS011;3942;51.518;6.912;2024-02-15T10:01:33;9.05;;;2.33;;
7795;SDS011;3942;51.518;6.912;2024-02-15T10:06:38;7.28;;;2.25;;
7795;SDS011;3942;51.518;6.912;2024-02-15T10:11:44;9.48;;;2.80;;
7795;SDS011;3942;51.518;6.912;2024-02-15T10:16:57;7.43;;;2.55;;
7795;SDS011;3942;51.518;6.912;2024-02-15T10:22:07;9.23;;;2.22;;
7795;SDS011;3942;51.518;6.912;2024-02-15T10:27:09;6.63;;;2.40;;
7795;SDS011;3942;51.518;6.912;2024-02-15T10:32:13;5.30;;;2.03;;
7795;SDS011;3942;51.518;6.912;2024-02-15T10:37:15;10.85;;;2.40;;
7795;SDS011;3942;51.518;6.912;2024-02-15T10:42:19;6.43;;;2.42;;
7795;SDS011;3942;51.518;6.912;2024-02-15T10:47:22;6.93;;;2.08;;
7795;SDS011;3942;51.518;6.912;2024-02-15T10:52:24;6.82;;;1.98;;
7795;SDS011;3942;51.518;6.912;2024-02-15T10:57:33;7.68;;;1.83;;
7795;SDS011;3942;51.518;6.912;2024-02-15T11:02:42;7.25;;;2.25;;
7795;SDS011;3942;51.518;6.912;2024-02-15T11:07:49;5.60;;;2.53;;
7795;SDS011;3942;51.518;6.912;2024-02-15T11:12:53;12.57;;;2.13;;
7795;SDS011;3942;51.518;6.912;2024-02-15T11:18:00;5.18;;;1.58;;
7795;SDS011;3942;51.518;6.912;2024-02-15T11:23:03;6.05;;;1.90;;
7795;SDS011;3942;51.518;6.912;2024-02-15T11:33:38;7.50;;;1.80;;
7795;SDS011;3942;51.518;6.912;2024-02-15T11:38:40;6.70;;;2.50;;
7795;SDS011;3942;51.518;6.912;2024-02-15T11:43:47;9.70;;;3.03;;
7795;SDS011;3942;51.518;6.912;2024-02-15T11:49:03;5.55;;;2.25;;
7795;SDS011;3942;51.518;6.912;2024-02-15T11:54:06;7.78;;;2.30;;
7795;SDS011;3942;51.518;6.912;2024-02-15T11:59:11;4.18;;;1.95;;
7795;SDS011;3942;51.518;6.912;2024-02-15T12:04:20;8.10;;;2.67;;
7795;SDS011;3942;51.518;6.912;2024-02-15T12:09:39;7.32;;;2.88;;
7795;SDS011;3942;51.518;6.912;2024-02-15T12:14:58;5.13;;;1.98;;
7795;SDS011;3942;51.518;6.912;2024-02-15T12:20:19;7.82;;;1.98;;
7795;SDS011;3942;51.518;6.912;2024-02-15T12:25:24;4.22;;;2.13;;
7795;SDS011;3942;51.518;6.912;2024-02-15T12:30:32;7.65;;;2.08;;
7795;SDS011;3942;51.518;6.912;2024-02-15T12:35:37;4.50;;;1.80;;
7795;SDS011;3942;51.518;6.912;2024-02-15T12:40:39;6.40;;;1.92;;
7795;SDS011;3942;51.518;6.912;2024-02-15T12:45:42;4.47;;;1.70;;
7795;SDS011;3942;51.518;6.912;2024-02-15T12:50:45;7.22;;;2.13;;
7795;SDS011;3942;51.518;6.912;2024-02-15T12:55:52;6.85;;;2.00;;
7795;SDS011;3942;51.518;6.912;2024-02-15T13:00:54;9.88;;;2.28;;
7795;SDS011;3942;51.518;6.912;2024-02-15T13:06:00;4.57;;;2.17;;
7795;SDS011;3942;51.518;6.912;2024-02-15T13:11:01;9.68;;;2.20;;
7795;SDS011;3942;51.518;6.912;2024-02-15T13:16:04;5.70;;;1.92;;
7795;SDS011;3942;51.518;6.912;2024-02-15T13:21:09;4.80;;;2.20;;
7795;SDS011;3942;51.518;6.912;2024-02-15T13:26:10;6.65;;;1.92;;
7795;SDS011;3942;51.518;6.912;2024-02-15T13:31:13;4.70;;;1.33;;
7795;SDS011;3942;51.518;6.912;2024-02-15T13:36:17;6.88;;;1.90;;
7795;SDS011;3942;51.518;6.912;2024-02-15T13:41:20;5.72;;;1.40;;
7795;SDS011;3942;51.518;6.912;2024-02-15T13:46:22;5.18;;;1.42;;
7795;SDS011;3942;51.518;6.912;2024-02-15T13:51:26;8.43;;;1.70;;
7795;SDS011;3942;51.518;6.912;2024-02-15T13:56:27;7.60;;;1.90;;
7795;SDS011;3942;51.518;6.912;2024-02-15T14:01:29;7.80;;;1.60;;
7795;SDS011;3942;51.518;6.912;2024-02-15T14:06:32;4.70;;;1.90;;
7795;SDS011;3942;51.518;6.912;2024-02-15T14:11:36;5.65;;;1.90;;
7795;SDS011;3942;51.518;6.912;2024-02-15T14:16:38;3.47;;;1.67;;
7795;SDS011;3942;51.518;6.912;2024-02-15T14:21:41;7.60;;;2.45;;
7795;SDS011;3942;51.518;6.912;2024-02-15T14:26:45;6.72;;;2.00;;
7795;SDS011;3942;51.518;6.912;2024-02-15T14:31:47;5.00;;;1.83;;
7795;SDS011;3942;51.518;6.912;2024-02-15T14:37:08;15.07;;;5.88;;
7795;SDS011;3942;51.518;6.912;2024-02-15T14:42:10;11.00;;;3.13;;
7795;SDS011;3942;51.518;6.912;2024-02-15T14:47:12;5.25;;;2.83;;
7795;SDS011;3942;51.518;6.912;2024-02-15T14:52:16;3.72;;;1.80;;
7795;SDS011;3942;51.518;6.912;2024-02-15T14:57:18;5.63;;;1.98;;
7795;SDS011;3942;51.518;6.912;2024-02-15T15:02:20;10.80;;;2.38;;
7795;SDS011;3942;51.518;6.912;2024-02-15T15:07:23;4.07;;;1.73;;
7795;SDS011;3942;51.518;6.912;2024-02-15T15:12:51;6.40;;;2.22;;
7795;SDS011;3942;51.518;6.912;2024-02-15T15:17:53;3.60;;;1.67;;
7795;SDS011;3942;51.518;6.912;2024-02-15T15:22:57;5.40;;;1.65;;
7795;SDS011;3942;51.518;6.912;2024-02-15T15:27:58;3.70;;;2.00;;
7795;SDS011;3942;51.518;6.912;2024-02-15T15:33:01;7.13;;;1.75;;
7795;SDS011;3942;51.518;6.912;2024-02-15T15:38:04;6.70;;;1.83;;
7795;SDS011;3942;51.518;6.912;2024-02-15T15:43:06;3.95;;;1.50;;
7795;SDS011;3942;51.518;6.912;2024-02-15T15:48:08;7.13;;;1.52;;
7795;SDS011;3942;51.518;6.912;2024-02-15T15:53:13;8.10;;;2.42;;
7795;SDS011;3942;51.518;6.912;2024-02-15T15:58:15;5.30;;;1.73;;
7795;SDS011;3942;51.518;6.912;2024-02-15T16:03:16;3.80;;;1.65;;
7795;SDS011;3942;51.518;6.912;2024-02-15T16:08:20;4.03;;;1.60;;
7795;SDS011;3942;51.518;6.912;2024-02-15T16:13:22;6.55;;;1.75;;
7795;SDS011;3942;51.518;6.912;2024-02-15T16:18:25;4.50;;;1.98;;
7795;SDS011;3942;51.518;6.912;2024-02-15T16:23:29;3.28;;;1.75;;
7795;SDS011;3942;51.518;6.912;2024-02-15T16:28:31;5.47;;;1.70;;
7795;SDS011;3942;51.518;6.912;2024-02-15T16:33:33;7.28;;;1.98;;
7795;SDS011;3942;51.518;6.912;2024-02-15T16:38:36;5.55;;;1.88;;
7795;SDS011;3942;51.518;6.912;2024-02-15T16:43:39;4.07;;;1.55;;
7795;SDS011;3942;51.518;6.912;2024-02-15T16:48:42;4.38;;;1.48;;
7795;SDS011;3942;51.518;6.912;2024-02-15T16:53:45;6.82;;;1.52;;
7795;SDS011;3942;51.518;6.912;2024-02-15T16:58:47;6.53;;;1.25;;
7795;SDS011;3942;51.518;6.912;2024-02-15T17:03:49;3.35;;;1.45;;
7795;SDS011;3942;51.518;6.912;2024-02-15T17:08:54;5.88;;;1.55;;
7795;SDS011;3942;51.518;6.912;2024-02-15T17:13:56;5.20;;;2.33;;
7795;SDS011;3942;51.518;6.912;2024-02-15T17:19:01;4.10;;;2.08;;
7795;SDS011;3942;51.518;6.912;2024-02-15T17:24:05;5.22;;;1.70;;
7795;SDS011;3942;51.518;6.912;2024-02-15T17:29:07;4.47;;;1.60;;
7795;SDS011;3942;51.518;6.912;2024-02-15T17:34:11;3.53;;;2.03;;
7795;SDS011;3942;51.518;6.912;2024-02-15T17:39:14;2.53;;;1.58;;
7795;SDS011;3942;51.518;6.912;2024-02-15T17:44:16;7.18;;;2.05;;
7795;SDS011;3942;51.518;6.912;2024-02-15T17:49:18;4.18;;;1.30;;
7795;SDS011;3942;51.518;6.912;2024-02-15T17:54:22;6.55;;;1.52;;
7795;SDS011;3942;51.518;6.912;2024-02-15T17:59:24;6.00;;;2.58;;
7795;SDS011;3942;51.518;6.912;2024-02-15T18:04:26;4.85;;;1.48;;
7795;SDS011;3942;51.518;6.912;2024-02-15T18:09:29;5.13;;;2.30;;
7795;SDS011;3942;51.518;6.912;2024-02-15T18:14:31;4.40;;;1.58;;
7795;SDS011;3942;51.518;6.912;2024-02-15T18:19:33;5.65;;;2.10;;
7795;SDS011;3942;51.518;6.912;2024-02-15T18:24:36;6.93;;;2.00;;
7795;SDS011;3942;51.518;6.912;2024-02-15T18:29:38;4.88;;;2.03;;
7795;SDS011;3942;51.518;6.912;2024-02-15T18:34:40;4.43;;;1.70;;
7795;SDS011;3942;51.518;6.912;2024-02-15T18:39:43;5.38;;;1.92;;
7795;SDS011;3942;51.518;6.912;2024-02-15T18:44:45;3.88;;;2.15;;
7795;SDS011;3942;51.518;6.912;2024-02-15T18:49:47;13.35;;;6.68;;
7795;SDS011;3942;51.518;6.912;2024-02-15T18:54:50;14.57;;;6.78;;
7795;SDS011;3942;51.518;6.912;2024-02-15T18:59:57;8.82;;;2.20;;
7795;SDS011;3942;51.518;6.912;2024-02-15T19:04:58;5.05;;;1.98;;
7795;SDS011;3942;51.518;6.912;2024-02-15T19:10:12;4.15;;;1.52;;
7795;SDS011;3942;51.518;6.912;2024-02-15T19:15:15;5.45;;;2.60;;
7795;SDS011;3942;51.518;6.912;2024-02-15T19:20:17;3.10;;;1.55;;
7795;SDS011;3942;51.518;6.912;2024-02-15T19:25:20;6.53;;;2.55;;
7795;SDS011;3942;51.518;6.912;2024-02-15T19:30:22;5.80;;;2.35;;
7795;SDS011;3942;51.518;6.912;2024-02-15T19:35:24;8.07;;;2.00;;
7795;SDS011;3942;51.518;6.912;2024-02-15T19:40:28;7.75;;;2.70;;
7795;SDS011;3942;51.518;6.912;2024-02-15T19:45:29;9.73;;;2.53;;
7795;SDS011;3942;51.518;6.912;2024-02-15T19:50:37;5.23;;;1.63;;
7795;SDS011;3942;51.518;6.912;2024-02-15T19:55:40;3.58;;;2.13;;
7795;SDS011;3942;51.518;6.912;2024-02-15T20:00:42;7.28;;;2.85;;
7795;SDS011;3942;51.518;6.912;2024-02-15T20:05:47;4.35;;;2.08;;
7795;SDS011;3942;51.518;6.912;2024-02-15T20:10:50;6.50;;;2.33;;
7795;SDS011;3942;51.518;6.912;2024-02-15T20:15:55;10.02;;;2.22;;
7795;SDS011;3942;51.518;6.912;2024-02-15T20:21:01;4.43;;;1.67;;
7795;SDS011;3942;51.518;6.912;2024-02-15T20:26:06;3.42;;;1.52;;
7795;SDS011;3942;51.518;6.912;2024-02-15T20:31:08;6.00;;;1.80;;
7795;SDS011;3942;51.518;6.912;2024-02-15T20:36:10;3.22;;;1.40;;
7795;SDS011;3942;51.518;6.912;2024-02-15T20:41:14;7.30;;;2.13;;
7795;SDS011;3942;51.518;6.912;2024-02-15T20:46:24;6.70;;;1.90;;
7795;SDS011;3942;51.518;6.912;2024-02-15T20:51:26;3.05;;;1.08;;
7795;SDS011;3942;51.518;6.912;2024-02-15T20:56:29;5.93;;;1.63;;
7795;SDS011;3942;51.518;6.912;2024-02-15T21:01:33;5.63;;;2.50;;
7795;SDS011;3942;51.518;6.912;2024-02-15T21:06:36;5.00;;;1.83;;
7795;SDS011;3942;51.518;6.912;2024-02-15T21:11:39;8.32;;;2.13;;
7795;SDS011;3942;51.518;6.912;2024-02-15T21:16:43;5.97;;;1.77;;
7795;SDS011;3942;51.518;6.912;2024-02-15T21:21:45;4.88;;;1.90;;
7795;SDS011;3942;51.518;6.912;2024-02-15T21:26:49;6.40;;;1.60;;
7795;SDS011;3942;51.518;6.912;2024-02-15T21:31:51;5.57;;;1.83;;
7795;SDS011;3942;51.518;6.912;2024-02-15T21:36:53;6.20;;;1.98;;
7795;SDS011;3942;51.518;6.912;2024-02-15T21:41:56;5.25;;;1.42;;
7795;SDS011;3942;51.518;6.912;2024-02-15T21:46:58;5.45;;;1.80;;
7795;SDS011;3942;51.518;6.912;2024-02-15T21:52:00;5.78;;;1.95;;
7795;SDS011;3942;51.518;6.912;2024-02-15T21:57:04;7.03;;;1.65;;
7795;SDS011;3942;51.518;6.912;2024-02-15T22:02:07;5.20;;;1.95;;
7795;SDS011;3942;51.518;6.912;2024-02-15T22:07:09;6.40;;;2.05;;
7795;SDS011;3942;51.518;6.912;2024-02-15T22:12:14;6.30;;;1.63;;
7795;SDS011;3942;51.518;6.912;2024-02-15T22:17:18;4.43;;;2.33;;
7795;SDS011;3942;51.518;6.912;2024-02-15T22:22:19;5.75;;;2.20;;
7795;SDS011;3942;51.518;6.912;2024-02-15T22:27:23;5.13;;;2.20;;
7795;SDS011;3942;51.518;6.912;2024-02-15T22:32:25;4.28;;;1.60;;
7795;SDS011;3942;51.518;6.912;2024-02-15T22:37:27;60.75;;;35.88;;
7795;SDS011;3942;51.518;6.912;2024-02-15T22:42:31;4.18;;;1.60;;
7795;SDS011;3942;51.518;6.912;2024-02-15T22:47:33;5.43;;;1.40;;
7795;SDS011;3942;51.518;6.912;2024-02-15T22:52:35;5.57;;;1.98;;
7795;SDS011;3942;51.518;6.912;2024-02-15T22:57:38;4.35;;;1.80;;
7795;SDS011;3942;51.518;6.912;2024-02-15T23:02:40;4.72;;;2.05;;
7795;SDS011;3942;51.518;6.912;2024-02-15T23:07:43;3.30;;;1.75;;
7795;SDS011;3942;51.518;6.912;2024-02-15T23:12:47;4.97;;;2.00;;
7795;SDS011;3942;51.518;6.912;2024-02-15T23:17:48;5.30;;;2.00;;
7795;SDS011;3942;51.518;6.912;2024-02-15T23:22:51;6.97;;;1.67;;
7795;SDS011;3942;51.518;6.912;2024-02-15T23:27:54;3.85;;;1.80;;
7795;SDS011;3942;51.518;6.912;2024-02-15T23:32:56;3.78;;;1.90;;
7795;SDS011;3942;51.518;6.912;2024-02-15T23:37:58;5.38;;;1.95;;
7795;SDS011;3942;51.518;6.912;2024-02-15T23:43:19;4.25;;;1.67;;
7795;SDS011;3942;51.518;6.912;2024-02-15T23:48:21;6.72;;;2.20;;
7795;SDS011;3942;51.518;6.912;2024-02-15T23:53:23;3.80;;;1.85;;
7795;SDS011;3942;51.518;6.912;2024-02-15T23:58:26;5.32;;;2.47;;
